createdAt,value
2022-11-02T00:00:52.167Z,16.67
2022-11-02T00:03:18.977Z,19.70
2022-11-02T00:05:45.771Z,20.45
2022-11-02T00:08:12.525Z,15.93
2022-11-02T00:10:39.381Z,14.95
2022-11-02T00:13:06.499Z,14.45
2022-11-02T00:15:36.116Z,17.02
2022-11-02T00:18:07.990Z,16.45
2022-11-02T00:20:37.233Z,11.65
2022-11-02T00:23:07.544Z,14.57
2022-11-02T00:25:34.778Z,13.35
2022-11-02T00:28:01.584Z,14.13
2022-11-02T00:30:29.046Z,12.65
2022-11-02T00:32:55.816Z,11.50
2022-11-02T00:35:22.711Z,15.20
2022-11-02T00:37:49.551Z,15.40
2022-11-02T00:40:17.182Z,11.60
2022-11-02T00:42:43.873Z,10.82
2022-11-02T00:45:10.838Z,14.80
2022-11-02T00:47:38.217Z,16.02
2022-11-02T00:50:05.758Z,15.45
2022-11-02T00:52:32.549Z,14.80
2022-11-02T00:54:59.317Z,18.30
2022-11-02T00:57:26.111Z,19.70
2022-11-02T00:59:52.964Z,13.93
2022-11-02T01:02:19.856Z,13.82
2022-11-02T01:04:46.753Z,15.13
2022-11-02T01:07:13.601Z,13.90
2022-11-02T01:09:40.403Z,14.65
2022-11-02T01:12:07.659Z,13.18
2022-11-02T01:14:34.501Z,14.60
2022-11-02T01:17:01.390Z,12.75
2022-11-02T01:19:28.258Z,17.45
2022-11-02T01:21:55.113Z,12.48
2022-11-02T01:24:21.906Z,14.05
2022-11-02T01:26:52.690Z,11.10
2022-11-02T01:29:19.860Z,13.55
2022-11-02T01:31:46.959Z,13.00
2022-11-02T01:34:14.021Z,11.45
2022-11-02T01:36:41.179Z,15.52
2022-11-02T01:39:08.157Z,11.75
2022-11-02T01:41:34.970Z,11.82
2022-11-02T01:44:05.152Z,12.82
2022-11-02T01:46:43.873Z,15.02
2022-11-02T01:49:19.098Z,12.32
2022-11-02T01:51:57.652Z,9.55
2022-11-02T01:54:27.248Z,10.00
2022-11-02T01:56:58.202Z,11.20
2022-11-02T01:59:30.993Z,10.15
2022-11-02T02:01:58.023Z,10.65
2022-11-02T02:04:26.954Z,10.98
2022-11-02T02:06:57.132Z,13.88
2022-11-02T02:09:25.482Z,12.93
2022-11-02T02:11:52.266Z,12.85
2022-11-02T02:14:20.589Z,15.13
2022-11-02T02:16:56.096Z,13.57
2022-11-02T02:19:25.606Z,12.10
2022-11-02T02:22:30.743Z,12.85
2022-11-02T02:25:25.605Z,11.80
2022-11-02T02:28:08.763Z,11.77
2022-11-02T02:31:00.028Z,10.98
2022-11-02T02:33:35.873Z,10.60
2022-11-02T02:36:12.644Z,12.75
2022-11-02T02:39:02.094Z,13.35
2022-11-02T02:41:54.585Z,12.13
2022-11-02T02:44:23.910Z,12.15
2022-11-02T02:46:57.888Z,10.38
2022-11-02T02:52:03.494Z,11.35
2022-11-02T02:54:40.415Z,10.18
2022-11-02T02:57:17.477Z,11.45
2022-11-02T02:59:46.846Z,10.60
2022-11-02T03:02:23.323Z,10.73
2022-11-02T03:04:50.483Z,11.43
2022-11-02T03:07:22.570Z,12.10
2022-11-02T03:10:27.783Z,11.05
2022-11-02T03:13:20.644Z,12.82
2022-11-02T03:15:59.763Z,11.02
2022-11-02T03:18:36.124Z,11.23
2022-11-02T03:21:26.673Z,11.13
2022-11-02T03:24:17.101Z,9.20
2022-11-02T03:27:14.512Z,11.18
2022-11-02T03:30:12.109Z,9.02
2022-11-02T03:32:45.397Z,9.10
2022-11-02T03:35:25.407Z,10.07
2022-11-02T03:38:04.585Z,8.13
2022-11-02T03:40:35.850Z,10.27
2022-11-02T03:43:05.427Z,11.95
2022-11-02T03:45:38.388Z,10.88
2022-11-02T03:48:09.959Z,12.35
2022-11-02T03:50:40.422Z,10.65
2022-11-02T03:53:12.380Z,9.88
2022-11-02T03:55:46.585Z,9.52
2022-11-02T03:58:13.388Z,10.70
2022-11-02T04:00:52.963Z,12.95
2022-11-02T04:03:22.603Z,8.60
2022-11-02T04:05:49.427Z,9.77
2022-11-02T04:08:39.777Z,9.55
2022-11-02T04:11:26.049Z,10.90
2022-11-02T04:14:11.787Z,9.23
2022-11-02T04:16:38.721Z,13.05
2022-11-02T04:19:24.029Z,10.40
2022-11-02T04:22:09.704Z,10.43
2022-11-02T04:24:55.369Z,10.60
2022-11-02T04:27:22.219Z,11.00
2022-11-02T04:29:49.750Z,12.68
2022-11-02T04:32:39.949Z,9.68
2022-11-02T04:35:07.591Z,13.70
2022-11-02T04:38:00.189Z,11.48
2022-11-02T04:40:27.541Z,11.00
2022-11-02T04:42:54.523Z,10.10
2022-11-02T04:45:21.332Z,10.82
2022-11-02T04:47:48.069Z,11.43
2022-11-02T04:50:14.856Z,9.50
2022-11-02T04:52:41.655Z,11.95
2022-11-02T04:55:09.202Z,11.90
2022-11-02T04:57:35.936Z,10.55
2022-11-02T05:00:03.401Z,9.48
2022-11-02T05:02:30.355Z,9.98
2022-11-02T05:04:57.266Z,10.65
2022-11-02T05:07:24.089Z,12.57
2022-11-02T05:09:50.927Z,9.90
2022-11-02T05:12:17.698Z,14.20
2022-11-02T05:14:44.482Z,8.07
2022-11-02T05:17:13.357Z,11.60
2022-11-02T05:19:40.251Z,10.70
2022-11-02T05:22:07.033Z,9.02
2022-11-02T05:24:34.038Z,11.02
2022-11-02T05:27:01.045Z,15.13
2022-11-02T05:29:27.791Z,10.63
2022-11-02T05:31:54.582Z,11.25
2022-11-02T05:34:21.352Z,8.60
2022-11-02T05:36:48.880Z,10.57
2022-11-02T05:39:15.999Z,10.10
2022-11-02T05:41:42.778Z,11.45
2022-11-02T05:44:09.614Z,10.27
2022-11-02T05:46:36.386Z,11.93
2022-11-02T05:49:03.228Z,10.35
2022-11-02T05:51:30.014Z,10.80
2022-11-02T05:53:56.802Z,10.13
2022-11-02T05:56:25.251Z,10.63
2022-11-02T05:58:55.682Z,10.35
2022-11-02T06:01:22.715Z,11.93
2022-11-02T06:03:53.423Z,10.88
2022-11-02T06:06:20.710Z,11.93
2022-11-02T06:08:47.584Z,14.75
2022-11-02T06:11:15.066Z,10.30
2022-11-02T06:13:42.347Z,8.95
2022-11-02T06:16:11.197Z,11.98
2022-11-02T06:18:38.884Z,9.30
2022-11-02T06:21:05.927Z,12.63
2022-11-02T06:23:32.677Z,11.00
2022-11-02T06:26:01.022Z,11.65
2022-11-02T06:28:29.500Z,11.90
2022-11-02T06:30:57.357Z,11.35
2022-11-02T06:33:26.875Z,10.45
2022-11-02T06:35:54.874Z,9.93
2022-11-02T06:38:22.721Z,9.05
2022-11-02T06:40:55.350Z,11.35
2022-11-02T06:43:22.803Z,11.43
2022-11-02T06:45:49.951Z,9.73
2022-11-02T06:48:16.853Z,12.35
2022-11-02T06:50:43.794Z,9.93
2022-11-02T06:53:11.215Z,9.52
2022-11-02T06:55:38.052Z,10.13
2022-11-02T06:58:04.928Z,7.95
2022-11-02T07:00:31.902Z,9.68
2022-11-02T07:03:00.337Z,7.50
2022-11-02T07:05:27.257Z,11.45
2022-11-02T07:07:54.346Z,11.65
2022-11-02T07:10:21.270Z,9.30
2022-11-02T07:12:48.080Z,9.18
2022-11-02T07:15:14.883Z,11.98
2022-11-02T07:17:41.882Z,7.18
2022-11-02T07:20:11.043Z,11.00
2022-11-02T07:22:38.042Z,10.90
2022-11-02T07:25:05.322Z,11.10
2022-11-02T07:27:32.078Z,12.07
2022-11-02T07:29:59.052Z,12.02
2022-11-02T07:32:26.256Z,10.48
2022-11-02T07:34:53.058Z,10.18
2022-11-02T07:37:19.812Z,11.90
2022-11-02T07:39:46.626Z,12.60
2022-11-02T07:42:13.406Z,11.00
2022-11-02T07:44:40.127Z,10.38
2022-11-02T07:47:07.007Z,11.05
2022-11-02T07:49:33.834Z,11.95
2022-11-02T07:52:00.558Z,8.38
2022-11-02T07:54:27.256Z,12.50
2022-11-02T07:56:54.094Z,11.98
2022-11-02T07:59:20.922Z,11.43
2022-11-02T08:01:47.777Z,10.80
2022-11-02T08:04:14.930Z,11.18
2022-11-02T08:06:41.795Z,11.25
2022-11-02T08:09:09.822Z,10.02
2022-11-02T08:11:36.675Z,11.18
2022-11-02T08:14:03.506Z,13.77
2022-11-02T08:16:30.357Z,12.93
2022-11-02T08:18:59.336Z,11.30
2022-11-02T08:21:26.724Z,11.95
2022-11-02T08:23:58.561Z,10.85
2022-11-02T08:26:25.613Z,11.20
2022-11-02T08:28:52.469Z,12.98
2022-11-02T08:31:19.292Z,11.02
2022-11-02T08:33:46.178Z,11.82
2022-11-02T08:36:12.965Z,9.65
2022-11-02T08:38:40.106Z,12.80
2022-11-02T08:41:06.928Z,13.43
2022-11-02T08:43:33.824Z,14.50
2022-11-02T08:46:17.127Z,11.55
2022-11-02T08:48:44.974Z,16.20
2022-11-02T08:51:12.072Z,15.82
2022-11-02T08:53:38.867Z,17.90
2022-11-02T08:56:05.867Z,14.23
2022-11-02T08:58:32.793Z,19.05
2022-11-02T09:00:59.634Z,14.73
2022-11-02T09:03:27.686Z,13.05
2022-11-02T09:05:59.719Z,14.27
2022-11-02T09:08:28.089Z,16.85
2022-11-02T09:11:02.309Z,18.60
2022-11-02T09:13:29.484Z,20.48
2022-11-02T09:15:59.150Z,16.75
2022-11-02T09:18:26.411Z,24.10
2022-11-02T09:20:53.239Z,24.23
2022-11-02T09:23:20.910Z,13.93
2022-11-02T09:25:48.310Z,17.70
2022-11-02T09:28:15.669Z,21.45
2022-11-02T09:30:42.800Z,17.52
2022-11-02T09:33:10.371Z,17.35
2022-11-02T09:35:42.581Z,18.83
2022-11-02T09:38:09.625Z,17.08
2022-11-02T09:41:08.325Z,22.23
2022-11-02T09:43:38.077Z,15.07
2022-11-02T09:46:17.651Z,15.40
2022-11-02T09:48:57.008Z,16.15
2022-11-02T09:51:36.759Z,18.38
2022-11-02T09:54:13.176Z,13.85
2022-11-02T09:56:44.380Z,11.52
2022-11-02T09:59:20.524Z,14.02
2022-11-02T10:01:47.325Z,13.02
2022-11-02T10:04:26.884Z,16.70
2022-11-02T10:07:07.419Z,12.15
2022-11-02T10:09:42.249Z,15.52
2022-11-02T10:12:15.089Z,12.05
2022-11-02T10:15:02.120Z,13.52
2022-11-02T10:17:33.186Z,11.68
2022-11-02T10:20:10.907Z,20.33
2022-11-02T10:22:41.529Z,13.25
2022-11-02T10:25:12.046Z,15.05
2022-11-02T10:27:40.392Z,17.30
2022-11-02T10:30:11.297Z,16.70
2022-11-02T10:32:40.405Z,13.90
2022-11-02T10:35:33.949Z,14.75
2022-11-02T10:38:57.959Z,13.23
2022-11-02T10:41:24.664Z,13.35
2022-11-02T10:44:06.121Z,13.32
2022-11-02T10:46:51.660Z,13.35
2022-11-02T10:49:30.374Z,16.23
2022-11-02T10:51:57.805Z,17.27
2022-11-02T10:54:33.317Z,16.02
2022-11-02T10:57:12.013Z,13.07
2022-11-02T10:59:39.276Z,16.80
2022-11-02T11:02:13.693Z,14.25
2022-11-02T11:04:42.161Z,13.18
2022-11-02T11:07:11.772Z,15.23
2022-11-02T11:09:56.416Z,11.50
2022-11-02T11:12:28.806Z,9.57
2022-11-02T11:20:38.314Z,13.70
2022-11-02T11:23:37.200Z,11.50
2022-11-02T11:26:06.954Z,18.30
2022-11-02T11:28:42.411Z,16.40
2022-11-02T11:31:13.278Z,12.38
2022-11-02T11:34:00.228Z,11.35
2022-11-02T11:36:31.380Z,13.98
2022-11-02T11:39:02.195Z,17.20
2022-11-02T11:41:31.117Z,12.80
2022-11-02T11:43:58.513Z,12.07
2022-11-02T11:46:40.361Z,15.60
2022-11-02T11:49:27.482Z,13.38
2022-11-02T11:52:03.805Z,13.23
2022-11-02T11:54:31.958Z,13.63
2022-11-02T11:57:28.227Z,14.88
2022-11-02T11:59:59.064Z,12.23
2022-11-02T12:02:43.972Z,14.68
2022-11-02T12:05:18.229Z,13.00
2022-11-02T12:08:06.966Z,14.65
2022-11-02T12:10:58.712Z,13.38
2022-11-02T12:13:43.472Z,9.98
2022-11-02T12:16:29.033Z,12.02
2022-11-02T12:19:21.931Z,11.40
2022-11-02T12:22:23.892Z,8.98
2022-11-02T12:24:53.360Z,9.60
2022-11-02T12:27:54.754Z,12.30
2022-11-02T12:30:33.879Z,14.98
2022-11-02T12:33:23.139Z,12.73
2022-11-02T12:36:08.676Z,14.88
2022-11-02T12:38:55.558Z,9.43
2022-11-02T12:41:44.175Z,10.30
2022-11-02T12:44:17.511Z,13.07
2022-11-02T12:46:52.056Z,11.43
2022-11-02T12:49:19.239Z,7.78
2022-11-02T12:52:18.923Z,9.73
2022-11-02T12:54:53.530Z,10.55
2022-11-02T12:57:23.506Z,14.57
2022-11-02T12:59:54.914Z,8.27
2022-11-02T13:02:45.013Z,10.05
2022-11-02T13:05:21.291Z,9.15
2022-11-02T13:08:10.024Z,12.43
2022-11-02T13:10:47.168Z,9.57
2022-11-02T13:13:46.758Z,15.27
2022-11-02T13:16:15.597Z,11.93
2022-11-02T13:18:50.469Z,13.60
2022-11-02T13:21:30.860Z,11.00
2022-11-02T13:24:00.299Z,14.52
2022-11-02T13:26:41.556Z,9.70
2022-11-02T13:29:23.081Z,8.75
2022-11-02T13:32:02.118Z,9.55
2022-11-02T13:34:37.561Z,10.18
2022-11-02T13:37:23.073Z,22.60
2022-11-02T13:39:55.394Z,11.05
2022-11-02T13:42:37.456Z,10.88
2022-11-02T13:45:40.350Z,8.98
2022-11-02T13:48:50.255Z,9.93
2022-11-02T13:51:28.386Z,10.85
2022-11-02T13:54:03.867Z,9.20
2022-11-02T13:56:30.892Z,11.15
2022-11-02T13:59:09.534Z,9.82
2022-11-02T14:01:40.998Z,10.52
2022-11-02T14:04:10.911Z,9.38
2022-11-02T14:06:46.844Z,8.57
2022-11-02T14:09:30.545Z,10.27
2022-11-02T14:12:22.178Z,10.35
2022-11-02T14:15:14.837Z,8.68
2022-11-02T14:17:53.677Z,12.77
2022-11-02T14:20:32.925Z,11.60
2022-11-02T14:23:11.992Z,8.80
2022-11-02T14:25:53.542Z,8.82
2022-11-02T14:28:23.115Z,9.25
2022-11-02T14:31:04.629Z,11.23
2022-11-02T14:33:58.978Z,7.40
2022-11-02T14:36:53.907Z,11.65
2022-11-02T14:39:29.797Z,8.02
2022-11-02T14:42:03.658Z,9.98
2022-11-02T14:47:12.537Z,10.05
2022-11-02T14:49:56.241Z,7.63
2022-11-02T14:52:34.364Z,10.10
2022-11-02T14:55:19.577Z,9.25
2022-11-02T14:58:07.910Z,7.25
2022-11-02T15:00:59.686Z,7.80
2022-11-02T15:03:26.553Z,12.95
2022-11-02T15:06:19.305Z,9.93
2022-11-02T15:09:01.217Z,9.68
2022-11-02T15:11:50.803Z,13.88
2022-11-02T15:14:35.955Z,12.63
2022-11-02T15:17:25.697Z,9.98
2022-11-02T15:20:13.156Z,11.68
2022-11-02T15:22:53.971Z,9.50
2022-11-02T15:25:36.661Z,15.07
2022-11-02T15:28:28.545Z,10.07
2022-11-02T15:31:06.974Z,10.50
2022-11-02T15:33:44.010Z,9.10
2022-11-02T15:36:20.805Z,13.13
2022-11-02T15:38:52.781Z,12.15
2022-11-02T15:41:41.653Z,13.90
2022-11-02T15:44:33.067Z,14.70
2022-11-02T15:47:28.568Z,16.08
2022-11-02T15:50:24.473Z,14.32
2022-11-02T15:53:21.850Z,12.15
2022-11-02T15:55:53.817Z,11.93
2022-11-02T15:58:29.867Z,9.88
2022-11-02T16:01:11.782Z,12.50
2022-11-02T16:03:42.770Z,12.18
2022-11-02T16:06:09.741Z,10.27
2022-11-02T16:08:38.000Z,11.80
2022-11-02T16:11:18.073Z,20.40
2022-11-02T16:14:08.188Z,13.20
2022-11-02T16:16:36.043Z,13.40
2022-11-02T16:19:03.088Z,18.15
2022-11-02T16:21:30.548Z,20.65
2022-11-02T16:23:59.394Z,21.75
2022-11-02T16:26:29.763Z,12.93
2022-11-02T16:28:58.756Z,17.10
2022-11-02T16:31:31.253Z,14.32
2022-11-02T16:34:19.727Z,14.40
2022-11-02T16:36:46.805Z,18.63
2022-11-02T16:39:13.597Z,23.42
2022-11-02T16:41:41.207Z,18.23
2022-11-02T16:44:16.775Z,18.88
2022-11-02T16:46:52.249Z,30.52
2022-11-02T16:49:24.089Z,19.10
2022-11-02T16:51:53.929Z,19.35
2022-11-02T16:54:47.049Z,19.67
2022-11-02T16:57:23.480Z,17.27
2022-11-02T17:00:19.323Z,22.10
2022-11-02T17:02:47.206Z,15.65
2022-11-02T17:05:26.240Z,13.63
2022-11-02T17:08:05.122Z,15.43
2022-11-02T17:10:34.557Z,11.73
2022-11-02T17:13:02.951Z,16.63
2022-11-02T17:15:34.682Z,19.23
2022-11-02T17:18:13.136Z,17.05
2022-11-02T17:20:41.611Z,13.27
2022-11-02T17:23:32.764Z,14.85
2022-11-02T17:26:27.096Z,16.20
2022-11-02T17:28:58.993Z,21.42
2022-11-02T17:31:41.074Z,18.80
2022-11-02T17:34:17.724Z,18.98
2022-11-02T17:36:46.028Z,15.65
2022-11-02T17:39:17.067Z,21.50
2022-11-02T17:42:03.543Z,17.63
2022-11-02T17:44:30.719Z,16.52
2022-11-02T17:46:57.479Z,16.10
2022-11-02T17:49:26.598Z,18.63
2022-11-02T17:51:53.585Z,18.25
2022-11-02T17:54:20.504Z,18.23
2022-11-02T17:56:47.332Z,14.68
2022-11-02T17:59:14.131Z,19.08
2022-11-02T18:01:41.222Z,18.30
2022-11-02T18:04:08.089Z,22.02
2022-11-02T18:06:34.924Z,23.98
2022-11-02T18:09:11.050Z,20.70
2022-11-02T18:11:37.926Z,24.55
2022-11-02T18:14:05.408Z,22.45
2022-11-02T18:16:32.381Z,21.85
2022-11-02T18:18:59.248Z,33.35
2022-11-02T18:21:26.010Z,31.95
2022-11-02T18:23:52.799Z,19.92
2022-11-02T18:26:19.612Z,30.88
2022-11-02T18:28:46.390Z,32.20
2022-11-02T18:31:13.264Z,19.42
2022-11-02T18:33:43.302Z,26.30
2022-11-02T18:36:11.071Z,27.00
2022-11-02T18:38:38.223Z,24.48
2022-11-02T18:41:26.825Z,21.95
2022-11-02T18:44:00.503Z,20.15
2022-11-02T18:46:31.921Z,28.98
2022-11-02T18:48:59.087Z,30.40
2022-11-02T18:51:26.078Z,21.75
2022-11-02T18:53:57.577Z,24.50
2022-11-02T18:56:25.869Z,25.75
2022-11-02T18:58:53.928Z,23.63
2022-11-02T19:01:22.503Z,22.08
2022-11-02T19:03:56.631Z,25.67
2022-11-02T19:06:43.667Z,19.85
2022-11-02T19:09:19.823Z,19.92
2022-11-02T19:11:56.939Z,20.45
2022-11-02T19:14:24.356Z,25.15
2022-11-02T19:16:51.201Z,17.75
2022-11-02T19:19:20.346Z,17.83
2022-11-02T19:21:47.384Z,23.73
2022-11-02T19:24:14.238Z,24.00
2022-11-02T19:26:41.317Z,18.33
2022-11-02T19:29:08.171Z,18.10
2022-11-02T19:31:35.718Z,22.15
2022-11-02T19:34:03.099Z,18.58
2022-11-02T19:36:33.245Z,19.50
2022-11-02T19:39:03.106Z,22.65
2022-11-02T19:41:31.184Z,18.35
2022-11-02T19:43:58.292Z,19.92
2022-11-02T19:46:26.007Z,24.65
2022-11-02T19:48:53.970Z,19.52
2022-11-02T19:51:25.859Z,23.35
2022-11-02T19:53:56.165Z,18.50
2022-11-02T19:56:23.457Z,35.58
2022-11-02T19:58:51.738Z,20.85
2022-11-02T20:01:24.454Z,17.80
2022-11-02T20:03:52.132Z,20.65
2022-11-02T20:06:24.694Z,16.77
2022-11-02T20:08:53.008Z,17.30
2022-11-02T20:11:20.593Z,17.98
2022-11-02T20:13:48.141Z,15.45
2022-11-02T20:16:18.360Z,20.70
2022-11-02T20:18:46.954Z,19.30
2022-11-02T20:21:16.315Z,15.93
2022-11-02T20:23:43.947Z,20.02
2022-11-02T20:26:14.166Z,18.15
2022-11-02T20:28:45.159Z,21.10
2022-11-02T20:31:15.130Z,18.88
2022-11-02T20:33:43.740Z,22.67
2022-11-02T20:36:12.334Z,20.90
2022-11-02T20:38:39.482Z,18.10
2022-11-02T20:41:16.432Z,19.33
2022-11-02T20:43:47.077Z,18.77
2022-11-02T20:46:38.267Z,17.25
2022-11-02T20:49:21.184Z,20.17
2022-11-02T20:51:55.902Z,17.73
2022-11-02T20:54:24.374Z,19.48
2022-11-02T20:56:52.881Z,16.77
2022-11-02T20:59:20.854Z,20.92
2022-11-02T21:01:49.145Z,19.42
2022-11-02T21:04:21.095Z,18.33
2022-11-02T21:06:51.496Z,20.13
2022-11-02T21:09:19.850Z,18.65
2022-11-02T21:12:06.562Z,22.50
2022-11-02T21:14:35.487Z,18.75
2022-11-02T21:17:05.526Z,18.63
2022-11-02T21:19:33.926Z,18.25
2022-11-02T21:22:01.432Z,18.95
2022-11-02T21:24:29.489Z,16.02
2022-11-02T21:26:56.530Z,15.07
2022-11-02T21:29:23.817Z,16.15
2022-11-02T21:31:50.732Z,19.95
2022-11-02T21:34:17.594Z,12.82
2022-11-02T21:36:44.381Z,15.27
2022-11-02T21:39:11.175Z,14.13
2022-11-02T21:41:39.052Z,14.75
2022-11-02T21:44:07.179Z,16.63
2022-11-02T21:46:34.189Z,14.27
2022-11-02T21:49:01.284Z,15.45
2022-11-02T21:51:28.569Z,11.90
2022-11-02T21:53:56.615Z,16.67
2022-11-02T21:56:27.970Z,14.38
2022-11-02T21:58:55.948Z,15.32
2022-11-02T22:01:44.238Z,12.50
2022-11-02T22:04:13.681Z,15.27
2022-11-02T22:06:41.026Z,15.50
2022-11-02T22:09:10.482Z,14.75
2022-11-02T22:11:37.350Z,15.95
2022-11-02T22:14:04.297Z,17.00
2022-11-02T22:16:36.567Z,14.77
2022-11-02T22:19:08.694Z,13.40
2022-11-02T22:21:41.246Z,15.88
2022-11-02T22:24:08.640Z,14.27
2022-11-02T22:26:36.530Z,15.48
2022-11-02T22:29:04.263Z,16.20
2022-11-02T22:31:33.989Z,21.70
2022-11-02T22:34:01.917Z,20.67
2022-11-02T22:36:31.460Z,16.45
2022-11-02T22:38:59.568Z,16.42
2022-11-02T22:41:36.496Z,14.52
2022-11-02T22:44:23.637Z,13.77
2022-11-02T22:46:51.145Z,13.40
2022-11-02T22:49:19.505Z,13.00
2022-11-02T22:51:48.937Z,11.80
2022-11-02T22:54:18.289Z,10.85
2022-11-02T22:56:46.961Z,9.93
2022-11-02T22:59:14.433Z,11.68
2022-11-02T23:01:42.087Z,10.90
2022-11-02T23:04:11.424Z,10.45
2022-11-02T23:06:38.382Z,10.82
2022-11-02T23:09:05.483Z,12.80
2022-11-02T23:11:36.307Z,11.40
2022-11-02T23:14:07.819Z,15.27
2022-11-02T23:16:35.820Z,10.82
2022-11-02T23:19:29.241Z,10.88
2022-11-02T23:22:18.951Z,10.47
2022-11-02T23:25:05.684Z,12.32
2022-11-02T23:27:34.353Z,10.50
2022-11-02T23:30:39.780Z,12.70
2022-11-02T23:33:06.926Z,10.32
2022-11-02T23:36:00.287Z,11.60
2022-11-02T23:38:45.743Z,14.25
2022-11-02T23:41:12.786Z,9.52
2022-11-02T23:43:39.595Z,10.18
2022-11-02T23:46:06.315Z,10.35
2022-11-02T23:48:33.440Z,13.38
2022-11-02T23:51:19.129Z,13.07
2022-11-02T23:54:04.924Z,12.48
2022-11-02T23:56:45.618Z,11.82
2022-11-02T23:59:19.178Z,10.75
